createdAt,value
2022-11-08T00:00:43.101Z,8.72
2022-11-08T00:03:11.569Z,8.70
2022-11-08T00:05:57.494Z,8.66
2022-11-08T00:08:43.238Z,8.64
2022-11-08T00:11:29.164Z,8.61
2022-11-08T00:14:00.478Z,8.58
2022-11-08T00:16:30.500Z,8.56
2022-11-08T00:18:58.866Z,8.55
2022-11-08T00:21:27.428Z,8.51
2022-11-08T00:23:55.827Z,8.48
2022-11-08T00:26:24.201Z,8.46
2022-11-08T00:28:52.508Z,8.42
2022-11-08T00:31:20.902Z,8.40
2022-11-08T00:33:50.639Z,8.38
2022-11-08T00:36:19.011Z,8.35
2022-11-08T00:38:47.395Z,8.34
2022-11-08T00:41:16.071Z,8.32
2022-11-08T00:43:44.579Z,8.30
2022-11-08T00:46:12.933Z,8.29
2022-11-08T00:48:41.256Z,8.27
2022-11-08T00:51:13.205Z,8.26
2022-11-08T00:53:41.638Z,8.25
2022-11-08T00:56:13.165Z,8.26
2022-11-08T00:58:43.786Z,8.26
2022-11-08T01:01:13.461Z,8.25
2022-11-08T01:03:41.797Z,8.26
2022-11-08T01:06:13.706Z,8.26
2022-11-08T01:08:42.742Z,8.27
2022-11-08T01:11:14.606Z,8.29
2022-11-08T01:13:43.432Z,8.31
2022-11-08T01:16:14.650Z,8.34
2022-11-08T01:18:43.474Z,8.34
2022-11-08T01:21:13.991Z,8.34
2022-11-08T01:23:42.645Z,8.33
2022-11-08T01:26:14.637Z,8.30
2022-11-08T01:28:43.246Z,8.28
2022-11-08T01:31:13.822Z,8.27
2022-11-08T01:33:46.977Z,8.25
2022-11-08T01:36:22.246Z,8.22
2022-11-08T01:38:51.720Z,8.20
2022-11-08T01:41:21.219Z,8.20
2022-11-08T01:43:50.424Z,8.18
2022-11-08T01:46:42.615Z,8.15
2022-11-08T01:49:23.710Z,8.11
2022-11-08T01:52:00.637Z,8.08
2022-11-08T01:54:33.549Z,8.09
2022-11-08T01:57:05.170Z,8.09
2022-11-08T01:59:35.357Z,8.08
2022-11-08T02:02:03.994Z,8.08
2022-11-08T02:04:33.236Z,8.07
2022-11-08T02:07:04.061Z,8.06
2022-11-08T02:09:34.032Z,8.04
2022-11-08T02:12:03.087Z,8.03
2022-11-08T02:14:32.138Z,8.03
2022-11-08T02:17:00.651Z,8.00
2022-11-08T02:19:39.395Z,7.99
2022-11-08T02:22:17.326Z,7.96
2022-11-08T02:24:47.313Z,7.91
2022-11-08T02:27:16.279Z,7.88
2022-11-08T02:29:44.655Z,7.86
2022-11-08T02:32:13.789Z,7.84
2022-11-08T02:34:46.509Z,7.84
2022-11-08T02:37:17.567Z,7.83
2022-11-08T02:39:47.926Z,7.82
2022-11-08T02:42:18.564Z,7.81
2022-11-08T02:44:47.298Z,7.79
2022-11-08T02:47:16.261Z,7.78
2022-11-08T02:49:44.669Z,7.77
2022-11-08T02:52:13.103Z,7.74
2022-11-08T02:54:41.442Z,7.71
2022-11-08T02:57:11.197Z,7.68
2022-11-08T02:59:39.688Z,7.66
2022-11-08T03:02:08.501Z,7.67
2022-11-08T03:04:36.916Z,7.65
2022-11-08T03:07:05.332Z,7.65
2022-11-08T03:09:33.669Z,7.62
2022-11-08T03:12:01.986Z,7.63
2022-11-08T03:14:31.672Z,7.61
2022-11-08T03:17:00.107Z,7.61
2022-11-08T03:19:28.444Z,7.59
2022-11-08T03:21:56.876Z,7.59
2022-11-08T03:24:25.217Z,7.59
2022-11-08T03:26:53.660Z,7.59
2022-11-08T03:29:22.062Z,7.60
2022-11-08T03:31:51.932Z,7.59
2022-11-08T03:34:20.268Z,7.58
2022-11-08T03:36:48.707Z,7.59
2022-11-08T03:39:16.993Z,7.56
2022-11-08T03:41:45.818Z,7.57
2022-11-08T03:44:14.149Z,7.56
2022-11-08T03:46:42.476Z,7.56
2022-11-08T03:49:12.438Z,7.55
2022-11-08T03:51:40.756Z,7.55
2022-11-08T03:54:09.139Z,7.53
2022-11-08T03:56:37.473Z,7.50
2022-11-08T03:59:05.929Z,7.48
2022-11-08T04:01:34.580Z,7.47
2022-11-08T04:04:03.018Z,7.46
2022-11-08T04:06:32.717Z,7.46
2022-11-08T04:09:01.168Z,7.46
2022-11-08T04:11:47.102Z,7.45
2022-11-08T04:14:33.168Z,7.46
2022-11-08T04:17:01.536Z,7.47
2022-11-08T04:19:55.833Z,7.48
2022-11-08T04:22:25.728Z,7.47
2022-11-08T04:24:54.085Z,7.47
2022-11-08T04:27:22.448Z,7.47
2022-11-08T04:29:50.808Z,7.47
2022-11-08T04:32:19.171Z,7.46
2022-11-08T04:34:47.487Z,7.46
2022-11-08T04:37:15.879Z,7.44
2022-11-08T04:39:45.644Z,7.43
2022-11-08T04:42:13.980Z,7.39
2022-11-08T04:44:42.345Z,7.39
2022-11-08T04:47:11.173Z,7.38
2022-11-08T04:49:39.488Z,7.38
2022-11-08T04:52:08.969Z,7.38
2022-11-08T04:54:37.709Z,7.39
2022-11-08T04:57:07.474Z,7.40
2022-11-08T04:59:35.815Z,7.40
2022-11-08T05:02:04.435Z,7.40
2022-11-08T05:04:32.901Z,7.39
2022-11-08T05:07:01.287Z,7.37
2022-11-08T05:09:29.645Z,7.37
2022-11-08T05:11:57.980Z,7.36
2022-11-08T05:14:27.667Z,7.34
2022-11-08T05:16:56.041Z,7.34
2022-11-08T05:19:38.334Z,7.34
2022-11-08T05:22:20.568Z,7.30
2022-11-08T05:24:48.945Z,7.28
2022-11-08T05:27:17.325Z,7.24
2022-11-08T05:29:47.119Z,7.22
2022-11-08T05:32:15.436Z,7.20
2022-11-08T05:34:44.041Z,7.18
2022-11-08T05:37:12.398Z,7.17
2022-11-08T05:39:40.707Z,7.16
2022-11-08T05:42:08.992Z,7.16
2022-11-08T05:44:37.364Z,7.16
2022-11-08T05:47:07.185Z,7.17
2022-11-08T05:49:35.565Z,7.19
2022-11-08T05:52:04.616Z,7.22
2022-11-08T05:54:32.973Z,7.22
2022-11-08T05:57:01.309Z,7.22
2022-11-08T05:59:29.727Z,7.22
2022-11-08T06:01:58.107Z,7.22
2022-11-08T06:04:27.824Z,7.21
2022-11-08T06:06:56.201Z,7.21
2022-11-08T06:09:24.697Z,7.22
2022-11-08T06:11:53.033Z,7.19
2022-11-08T06:14:21.515Z,7.18
2022-11-08T06:16:49.873Z,7.18
2022-11-08T06:19:18.307Z,7.17
2022-11-08T06:21:48.037Z,7.18
2022-11-08T06:24:17.418Z,7.22
2022-11-08T06:26:46.108Z,7.24
2022-11-08T06:29:14.599Z,7.28
2022-11-08T06:31:43.442Z,7.28
2022-11-08T06:34:11.917Z,7.30
2022-11-08T06:36:40.267Z,7.32
2022-11-08T06:39:10.120Z,7.30
2022-11-08T06:41:38.637Z,7.35
2022-11-08T06:44:07.253Z,7.36
2022-11-08T06:46:35.653Z,7.42
2022-11-08T06:49:04.012Z,7.43
2022-11-08T06:51:32.381Z,7.45
2022-11-08T06:54:04.380Z,7.47
2022-11-08T06:56:36.733Z,7.50
2022-11-08T06:59:05.112Z,7.54
2022-11-08T07:01:33.505Z,7.54
2022-11-08T07:04:02.003Z,7.53
2022-11-08T07:06:31.956Z,7.52
2022-11-08T07:09:00.359Z,7.55
2022-11-08T07:11:28.743Z,7.59
2022-11-08T07:13:58.438Z,7.68
2022-11-08T07:16:27.021Z,7.78
2022-11-08T07:18:55.755Z,7.85
2022-11-08T07:21:24.829Z,7.95
2022-11-08T07:23:53.252Z,8.01
2022-11-08T07:26:21.831Z,8.08
2022-11-08T07:28:50.260Z,8.14
2022-11-08T07:31:20.054Z,8.19
2022-11-08T07:33:48.707Z,8.23
2022-11-08T07:36:17.255Z,8.27
2022-11-08T07:38:45.587Z,8.30
2022-11-08T07:41:13.918Z,8.33
2022-11-08T07:43:42.218Z,8.34
2022-11-08T07:46:10.533Z,8.36
2022-11-08T07:48:40.281Z,8.39
2022-11-08T07:51:08.721Z,8.43
2022-11-08T07:53:37.089Z,8.46
2022-11-08T07:56:05.901Z,8.51
2022-11-08T07:58:34.506Z,8.57
2022-11-08T08:01:03.365Z,8.63
2022-11-08T08:03:32.127Z,8.69
2022-11-08T08:06:01.934Z,8.76
2022-11-08T08:08:31.155Z,8.83
2022-11-08T08:11:00.580Z,8.92
2022-11-08T08:13:32.433Z,8.99
2022-11-08T08:16:01.524Z,9.08
2022-11-08T08:18:30.488Z,9.17
2022-11-08T08:20:59.174Z,9.22
2022-11-08T08:23:29.414Z,9.27
2022-11-08T08:25:57.865Z,9.33
2022-11-08T08:28:26.236Z,9.37
2022-11-08T08:30:54.578Z,9.39
2022-11-08T08:33:28.320Z,9.41
2022-11-08T08:35:57.957Z,9.44
2022-11-08T08:38:30.185Z,9.46
2022-11-08T08:40:59.029Z,9.53
2022-11-08T08:43:28.559Z,9.60
2022-11-08T08:46:00.875Z,9.65
2022-11-08T08:48:29.511Z,9.72
2022-11-08T08:50:58.042Z,9.77
2022-11-08T08:53:26.595Z,9.84
2022-11-08T08:55:56.611Z,9.91
2022-11-08T08:58:25.222Z,9.98
2022-11-08T09:03:42.109Z,10.14
2022-11-08T09:06:10.989Z,10.19
2022-11-08T09:08:39.373Z,10.23
2022-11-08T09:11:09.049Z,10.23
2022-11-08T09:13:37.423Z,10.26
2022-11-08T09:16:07.961Z,10.26
2022-11-08T09:18:36.474Z,10.25
2022-11-08T09:21:05.039Z,10.23
2022-11-08T09:23:33.446Z,10.22
2022-11-08T09:26:04.135Z,10.22
2022-11-08T09:28:35.526Z,10.23
2022-11-08T09:31:05.625Z,10.27
2022-11-08T09:33:34.636Z,10.30
2022-11-08T09:36:05.957Z,10.34
2022-11-08T09:38:34.561Z,10.37
2022-11-08T09:41:19.070Z,10.41
2022-11-08T09:43:57.289Z,10.43
2022-11-08T09:46:37.899Z,10.50
2022-11-08T09:49:07.503Z,10.58
2022-11-08T09:51:36.873Z,10.67
2022-11-08T09:54:18.471Z,10.73
2022-11-08T09:56:48.795Z,10.76
2022-11-08T09:59:32.813Z,10.75
2022-11-08T10:02:01.249Z,10.74
2022-11-08T10:04:33.131Z,10.73
2022-11-08T10:07:20.586Z,10.71
2022-11-08T10:10:04.498Z,10.73
2022-11-08T10:12:46.316Z,10.85
2022-11-08T10:15:26.207Z,11.00
2022-11-08T10:18:13.285Z,11.17
2022-11-08T10:20:55.189Z,11.34
2022-11-08T10:23:36.769Z,11.50
2022-11-08T10:26:12.361Z,11.62
2022-11-08T10:28:47.458Z,11.74
2022-11-08T10:31:19.103Z,11.84
2022-11-08T10:33:52.022Z,11.87
2022-11-08T10:36:27.083Z,11.85
2022-11-08T10:39:03.086Z,11.82
2022-11-08T10:41:39.406Z,11.82
2022-11-08T10:44:12.768Z,11.84
2022-11-08T10:46:44.962Z,11.83
2022-11-08T10:49:17.583Z,11.82
2022-11-08T10:51:46.677Z,11.83
2022-11-08T10:54:43.552Z,11.82
2022-11-08T10:57:13.824Z,11.81
2022-11-08T10:59:42.653Z,11.82
2022-11-08T11:02:29.176Z,11.84
2022-11-08T11:05:23.783Z,11.91
2022-11-08T11:08:14.195Z,12.07
2022-11-08T11:10:45.462Z,12.36
2022-11-08T11:13:16.303Z,12.64
2022-11-08T11:15:51.015Z,12.90
2022-11-08T11:18:34.652Z,13.12
2022-11-08T11:21:07.293Z,13.29
2022-11-08T11:23:43.358Z,13.46
2022-11-08T11:26:25.297Z,13.63
2022-11-08T11:29:06.630Z,13.74
2022-11-08T11:31:36.449Z,13.84
2022-11-08T11:34:36.968Z,13.97
2022-11-08T11:37:17.841Z,14.11
2022-11-08T11:39:53.089Z,14.25
2022-11-08T11:45:20.544Z,14.46
2022-11-08T11:47:53.642Z,14.55
2022-11-08T11:50:29.555Z,14.68
2022-11-08T11:52:59.125Z,14.79
2022-11-08T11:55:34.416Z,14.83
2022-11-08T11:58:12.748Z,14.88
2022-11-08T12:00:48.104Z,14.93
2022-11-08T12:03:43.836Z,14.99
2022-11-08T12:06:40.133Z,15.01
2022-11-08T12:09:25.194Z,15.04
2022-11-08T12:12:06.395Z,15.06
2022-11-08T12:14:46.207Z,15.08
2022-11-08T12:17:42.882Z,15.13
2022-11-08T12:20:28.845Z,15.18
2022-11-08T12:23:27.967Z,15.25
2022-11-08T12:26:06.001Z,15.30
2022-11-08T12:28:50.924Z,15.34
2022-11-08T12:31:27.969Z,15.41
2022-11-08T12:34:14.296Z,15.48
2022-11-08T12:36:52.881Z,15.56
2022-11-08T12:39:32.400Z,15.46
2022-11-08T12:42:15.576Z,15.42
2022-11-08T12:45:27.010Z,15.44
2022-11-08T12:48:02.095Z,15.56
2022-11-08T12:50:39.174Z,15.64
2022-11-08T12:53:40.519Z,15.74
2022-11-08T12:56:15.508Z,15.86
2022-11-08T12:58:47.281Z,15.96
2022-11-08T13:01:18.196Z,16.03
2022-11-08T13:04:34.500Z,16.09
2022-11-08T13:07:27.533Z,16.15
2022-11-08T13:10:12.631Z,16.20
2022-11-08T13:13:27.790Z,16.28
2022-11-08T13:16:18.262Z,16.37
2022-11-08T13:18:49.277Z,16.41
2022-11-08T13:22:19.564Z,16.40
2022-11-08T13:24:48.954Z,16.31
2022-11-08T13:27:33.806Z,16.28
2022-11-08T13:30:23.293Z,16.22
2022-11-08T13:33:00.098Z,16.19
2022-11-08T13:35:34.924Z,15.99
2022-11-08T13:38:18.064Z,15.77
2022-11-08T13:41:17.605Z,15.55
2022-11-08T13:43:46.769Z,15.40
2022-11-08T13:46:47.235Z,15.29
2022-11-08T13:49:19.328Z,15.21
2022-11-08T13:51:48.174Z,15.24
2022-11-08T13:54:52.881Z,15.22
2022-11-08T13:57:42.302Z,15.20
2022-11-08T14:00:33.370Z,15.18
2022-11-08T14:03:03.004Z,15.15
2022-11-08T14:05:42.520Z,15.11
2022-11-08T14:08:23.883Z,15.12
2022-11-08T14:11:31.686Z,15.12
2022-11-08T14:14:48.743Z,15.22
2022-11-08T14:17:44.791Z,15.17
2022-11-08T14:20:31.191Z,15.08
2022-11-08T14:23:13.388Z,15.09
2022-11-08T14:25:42.294Z,15.11
2022-11-08T14:28:24.017Z,15.18
2022-11-08T14:30:52.766Z,15.28
2022-11-08T14:33:23.273Z,15.33
2022-11-08T14:35:57.999Z,15.32
2022-11-08T14:38:29.328Z,15.30
2022-11-08T14:41:01.043Z,15.27
2022-11-08T14:43:30.364Z,15.25
2022-11-08T14:45:59.070Z,15.20
2022-11-08T14:48:30.956Z,15.17
2022-11-08T14:51:00.458Z,15.14
2022-11-08T14:53:32.688Z,15.14
2022-11-08T14:56:12.200Z,15.13
2022-11-08T14:58:40.670Z,15.10
2022-11-08T15:01:19.384Z,15.03
2022-11-08T15:03:53.455Z,14.98
2022-11-08T15:06:22.709Z,14.89
2022-11-08T15:08:55.103Z,14.79
2022-11-08T15:11:29.895Z,14.70
2022-11-08T15:14:02.064Z,14.63
2022-11-08T15:16:40.262Z,14.54
2022-11-08T15:19:40.138Z,14.45
2022-11-08T15:22:25.393Z,14.35
2022-11-08T15:25:03.039Z,14.23
2022-11-08T15:27:31.347Z,14.12
2022-11-08T15:30:26.949Z,14.01
2022-11-08T15:32:55.520Z,13.88
2022-11-08T15:35:28.481Z,13.76
2022-11-08T15:38:01.391Z,13.66
2022-11-08T15:40:35.772Z,13.57
2022-11-08T15:43:05.114Z,13.48
2022-11-08T15:45:35.777Z,13.42
2022-11-08T15:48:20.885Z,13.34
2022-11-08T15:50:49.615Z,13.27
2022-11-08T15:53:18.205Z,13.16
2022-11-08T15:55:52.329Z,13.10
2022-11-08T15:58:26.713Z,13.01
2022-11-08T16:00:56.633Z,12.92
2022-11-08T16:03:25.625Z,12.86
2022-11-08T16:05:54.025Z,12.78
2022-11-08T16:08:23.287Z,12.70
2022-11-08T16:10:54.790Z,12.62
2022-11-08T16:13:28.355Z,12.54
2022-11-08T16:15:57.895Z,12.46
2022-11-08T16:18:26.312Z,12.37
2022-11-08T16:20:54.994Z,12.30
2022-11-08T16:23:23.525Z,12.23
2022-11-08T16:25:55.916Z,12.11
2022-11-08T16:28:28.417Z,11.98
2022-11-08T16:30:57.374Z,11.93
2022-11-08T16:33:28.101Z,11.86
2022-11-08T16:35:58.882Z,11.79
2022-11-08T16:38:30.321Z,11.78
2022-11-08T16:41:00.110Z,11.77
2022-11-08T16:43:28.671Z,11.73
2022-11-08T16:46:05.626Z,11.70
2022-11-08T16:48:36.512Z,11.61
2022-11-08T16:51:06.931Z,11.51
2022-11-08T16:53:37.533Z,11.45
2022-11-08T16:56:07.310Z,11.37
2022-11-08T16:58:38.556Z,11.30
2022-11-08T17:01:10.726Z,11.21
2022-11-08T17:03:39.714Z,11.14
2022-11-08T17:06:08.720Z,11.08
2022-11-08T17:08:37.858Z,11.04
2022-11-08T17:11:14.533Z,11.01
2022-11-08T17:13:43.321Z,10.98
2022-11-08T17:16:13.338Z,10.97
2022-11-08T17:18:48.577Z,10.96
2022-11-08T17:21:43.786Z,10.93
2022-11-08T17:24:09.171Z,10.95
2022-11-08T17:26:38.896Z,10.94
2022-11-08T17:29:08.206Z,10.95
2022-11-08T17:31:36.602Z,10.93
2022-11-08T17:34:04.915Z,10.90
2022-11-08T17:36:33.392Z,10.82
2022-11-08T17:39:01.694Z,10.76
2022-11-08T17:41:31.342Z,10.77
2022-11-08T17:44:01.075Z,10.72
2022-11-08T17:46:29.454Z,10.67
2022-11-08T17:48:57.854Z,10.68
2022-11-08T17:51:26.197Z,10.71
2022-11-08T17:53:54.575Z,10.72
2022-11-08T17:56:22.930Z,10.70
2022-11-08T17:58:51.268Z,10.68
2022-11-08T18:01:21.063Z,10.67
2022-11-08T18:03:49.569Z,10.66
2022-11-08T18:06:17.935Z,10.64
2022-11-08T18:08:46.554Z,10.59
2022-11-08T18:11:15.174Z,10.57
2022-11-08T18:13:43.877Z,10.55
2022-11-08T18:16:14.684Z,10.54
2022-11-08T18:18:45.509Z,10.57
2022-11-08T18:21:14.457Z,10.59
2022-11-08T18:23:44.429Z,10.59
2022-11-08T18:26:14.473Z,10.60
2022-11-08T18:28:43.989Z,10.59
2022-11-08T18:31:14.157Z,10.55
2022-11-08T18:33:44.874Z,10.51
2022-11-08T18:36:15.509Z,10.48
2022-11-08T18:38:45.770Z,10.48
2022-11-08T18:41:16.250Z,10.48
2022-11-08T18:43:45.245Z,10.49
2022-11-08T18:46:16.590Z,10.50
2022-11-08T18:48:46.781Z,10.50
2022-11-08T18:51:17.073Z,10.48
2022-11-08T18:53:46.101Z,10.46
2022-11-08T18:56:15.018Z,10.44
2022-11-08T18:58:44.602Z,10.43
2022-11-08T19:01:13.274Z,10.42
2022-11-08T19:03:42.079Z,10.42
2022-11-08T19:06:11.798Z,10.41
2022-11-08T19:08:40.227Z,10.40
2022-11-08T19:11:10.737Z,10.40
2022-11-08T19:13:40.728Z,10.40
2022-11-08T19:16:13.060Z,10.42
2022-11-08T19:18:42.590Z,10.43
2022-11-08T19:21:15.529Z,10.46
2022-11-08T19:23:44.074Z,10.48
2022-11-08T19:26:14.569Z,10.48
2022-11-08T19:28:45.473Z,10.48
2022-11-08T19:31:15.147Z,10.48
2022-11-08T19:33:43.516Z,10.48
2022-11-08T19:36:17.035Z,10.47
2022-11-08T19:38:46.310Z,10.48
2022-11-08T19:41:16.481Z,10.49
2022-11-08T19:43:45.218Z,10.49
2022-11-08T19:46:15.386Z,10.52
2022-11-08T19:48:45.338Z,10.52
2022-11-08T19:51:17.331Z,10.53
2022-11-08T19:53:46.223Z,10.55
2022-11-08T19:56:17.589Z,10.57
2022-11-08T19:58:46.541Z,10.58
2022-11-08T20:01:17.744Z,10.60
2022-11-08T20:03:46.890Z,10.60
2022-11-08T20:06:19.733Z,10.61
2022-11-08T20:08:49.550Z,10.62
2022-11-08T20:11:21.758Z,10.63
2022-11-08T20:14:08.137Z,10.65
2022-11-08T20:16:57.526Z,10.65
2022-11-08T20:19:26.098Z,10.66
2022-11-08T20:21:57.536Z,10.66
2022-11-08T20:24:25.894Z,10.68
2022-11-08T20:26:55.220Z,10.70
2022-11-08T20:29:23.646Z,10.68
2022-11-08T20:31:52.926Z,10.67
2022-11-08T20:34:21.456Z,10.67
2022-11-08T20:36:49.845Z,10.66
2022-11-08T20:39:19.653Z,10.64
2022-11-08T20:41:48.455Z,10.61
2022-11-08T20:44:16.805Z,10.59
2022-11-08T20:46:45.210Z,10.58
2022-11-08T20:49:13.577Z,10.55
2022-11-08T20:51:41.961Z,10.54
2022-11-08T20:54:11.754Z,10.51
2022-11-08T20:56:41.827Z,10.51
2022-11-08T20:59:11.079Z,10.50
2022-11-08T21:01:39.539Z,10.51
2022-11-08T21:04:08.666Z,10.52
2022-11-08T21:06:37.498Z,10.52
2022-11-08T21:11:56.365Z,10.51
2022-11-08T21:14:25.529Z,10.52
2022-11-08T21:19:42.358Z,10.51
2022-11-08T21:22:16.611Z,10.50
2022-11-08T21:24:46.374Z,10.50
2022-11-08T21:27:17.185Z,10.50
2022-11-08T21:29:45.573Z,10.49
2022-11-08T21:32:14.001Z,10.46
2022-11-08T21:34:45.812Z,10.43
2022-11-08T21:37:15.502Z,10.40
2022-11-08T21:39:44.054Z,10.40
2022-11-08T21:42:12.424Z,10.39
2022-11-08T21:44:42.138Z,10.38
2022-11-08T21:47:10.870Z,10.36
2022-11-08T21:49:39.278Z,10.31
2022-11-08T21:52:07.947Z,10.25
2022-11-08T21:54:36.388Z,10.20
2022-11-08T21:57:05.051Z,10.17
2022-11-08T21:59:33.461Z,10.13
2022-11-08T22:02:03.189Z,10.10
2022-11-08T22:04:31.743Z,10.07
2022-11-08T22:07:00.231Z,10.02
2022-11-08T22:09:28.671Z,10.02
2022-11-08T22:11:57.013Z,10.01
2022-11-08T22:14:25.359Z,10.00
2022-11-08T22:16:53.693Z,9.99
2022-11-08T22:19:25.356Z,9.97
2022-11-08T22:21:54.024Z,9.96
2022-11-08T22:24:22.330Z,9.97
2022-11-08T22:26:52.933Z,9.97
2022-11-08T22:29:21.304Z,9.97
2022-11-08T22:31:49.767Z,9.97
2022-11-08T22:34:18.157Z,9.97
2022-11-08T22:36:48.240Z,9.97
2022-11-08T22:39:18.190Z,9.97
2022-11-08T22:41:48.125Z,9.97
2022-11-08T22:44:18.149Z,9.95
2022-11-08T22:46:48.136Z,9.95
2022-11-08T22:49:16.815Z,9.94
2022-11-08T22:51:47.146Z,9.95
2022-11-08T22:54:15.553Z,9.94
2022-11-08T22:56:44.025Z,9.92
2022-11-08T22:59:12.826Z,9.91
2022-11-08T23:01:41.179Z,9.88
2022-11-08T23:04:11.327Z,9.87
2022-11-08T23:06:40.584Z,9.83
2022-11-08T23:09:10.849Z,9.80
2022-11-08T23:11:53.260Z,9.78
2022-11-08T23:14:39.218Z,9.75
2022-11-08T23:17:08.364Z,9.73
2022-11-08T23:19:54.451Z,9.72
2022-11-08T23:22:40.948Z,9.70
2022-11-08T23:25:10.872Z,9.72
2022-11-08T23:27:56.582Z,9.69
2022-11-08T23:30:42.606Z,9.68
2022-11-08T23:33:10.994Z,9.65
2022-11-08T23:35:59.326Z,9.65
2022-11-08T23:38:27.698Z,9.66
2022-11-08T23:41:17.273Z,9.65
2022-11-08T23:44:03.315Z,9.65
2022-11-08T23:46:31.685Z,9.63
2022-11-08T23:49:00.127Z,9.62
2022-11-08T23:51:28.557Z,9.56
2022-11-08T23:53:56.937Z,9.54
2022-11-08T23:56:29.059Z,9.51
2022-11-08T23:58:59.089Z,9.50
